Time;durP1;ratioP1;P1;durP2;ratioP2;P2;SDS_P1;SDS_P2;PMS_P1;PMS_P2;Temp;Humidity;BMP_temperature;BMP_pressure;BME280_temperature;BME280_humidity;BME280_pressure;Samples;Min_cycle;Max_cycle;Signal;HPM_P1;HPM_P2
2022/12/06 00:02:01;;;;;;;3.80;3.50;;;;;;;;;;4982104;28;20053;-70
2022/12/06 00:04:26;;;;;;;4.43;4.03;;;;;;;;;;4983761;28;20053;-71
2022/12/06 00:06:52;;;;;;;4.30;3.90;;;;;;;;;;4982319;28;20380;-71
2022/12/06 00:09:19;;;;;;;4.18;3.72;;;;;;;;;;4982955;28;20042;-71
2022/12/06 00:11:45;;;;;;;4.47;4.07;;;;;;;;;;4983368;28;20058;-71
2022/12/06 00:14:11;;;;;;;4.63;4.13;;;;;;;;;;4983547;28;20042;-71
2022/12/06 00:16:37;;;;;;;9.52;4.25;;;;;;;;;;4982398;28;20046;-71
2022/12/06 00:19:03;;;;;;;4.22;3.83;;;;;;;;;;4983468;28;20053;-71
2022/12/06 00:21:31;;;;;;;9.75;4.20;;;;;;;;;;4982985;28;20052;-72
2022/12/06 00:24:04;;;;;;;4.38;3.97;;;;;;;;;;4983146;28;20096;-70
2022/12/06 00:26:30;;;;;;;4.80;4.22;;;;;;;;;;4983297;28;20050;-71
2022/12/06 00:28:59;;;;;;;6.32;4.65;;;;;;;;;;4982053;28;20046;-71
2022/12/06 00:31:28;;;;;;;6.45;4.82;;;;;;;;;;4982572;28;20048;-71
2022/12/06 00:33:53;;;;;;;10.00;5.10;;;;;;;;;;4982628;28;20053;-70
2022/12/06 00:36:27;;;;;;;5.70;4.95;;;;;;;;;;4982090;28;20046;-71
2022/12/06 00:38:52;;;;;;;4.47;3.97;;;;;;;;;;4981925;28;20049;-70
2022/12/06 00:41:20;;;;;;;5.25;4.50;;;;;;;;;;4982621;28;20054;-70
2022/12/06 00:43:46;;;;;;;10.30;5.82;;;;;;;;;;4981076;28;20092;-70
2022/12/06 00:46:17;;;;;;;7.38;5.43;;;;;;;;;;4982713;28;20050;-71
2022/12/06 00:48:44;;;;;;;8.43;5.83;;;;;;;;;;4982696;28;20113;-71
2022/12/06 00:51:10;;;;;;;12.23;6.43;;;;;;;;;;4982370;28;20325;-70
2022/12/06 00:53:35;;;;;;;7.95;6.13;;;;;;;;;;4982003;28;20065;-71
2022/12/06 00:56:01;;;;;;;7.63;6.13;;;;;;;;;;4982627;28;20038;-71
2022/12/06 00:58:26;;;;;;;9.38;7.25;;;;;;;;;;4981247;28;20043;-71
2022/12/06 01:00:52;;;;;;;7.57;5.20;;;;;;;;;;4981568;28;20050;-71
2022/12/06 01:03:18;;;;;;;8.88;5.57;;;;;;;;;;4981876;28;20050;-71
2022/12/06 01:05:46;;;;;;;7.63;5.65;;;;;;;;;;4982441;28;20046;-70
2022/12/06 01:08:13;;;;;;;12.00;5.82;;;;;;;;;;4982494;28;20042;-71
2022/12/06 01:10:39;;;;;;;7.38;4.93;;;;;;;;;;4982157;28;20046;-70
2022/12/06 01:13:06;;;;;;;8.18;5.03;;;;;;;;;;4981645;28;20495;-70
2022/12/06 01:15:31;;;;;;;6.88;5.20;;;;;;;;;;4981652;28;20089;-68
2022/12/06 01:17:57;;;;;;;6.03;4.63;;;;;;;;;;4984425;28;20085;-68
2022/12/06 01:20:23;;;;;;;6.85;4.60;;;;;;;;;;4982713;28;20050;-69
2022/12/06 01:22:48;;;;;;;12.90;5.32;;;;;;;;;;4994404;28;20161;-68
2022/12/06 01:25:14;;;;;;;7.50;5.32;;;;;;;;;;4980273;28;20050;-70
2022/12/06 01:27:39;;;;;;;6.10;4.93;;;;;;;;;;4994573;28;20058;-68
2022/12/06 01:30:05;;;;;;;8.98;4.20;;;;;;;;;;4980425;28;20050;-69
2022/12/06 01:32:31;;;;;;;6.07;4.72;;;;;;;;;;4979263;28;20076;-69
2022/12/06 01:34:57;;;;;;;6.30;4.60;;;;;;;;;;4981925;28;20415;-69
2022/12/06 01:37:22;;;;;;;5.03;4.07;;;;;;;;;;4981440;28;20097;-70
2022/12/06 01:39:47;;;;;;;5.03;4.18;;;;;;;;;;4981918;28;20140;-69
2022/12/06 01:42:13;;;;;;;6.53;4.38;;;;;;;;;;4981518;28;20108;-69
2022/12/06 01:44:48;;;;;;;6.65;4.13;;;;;;;;;;4980889;28;20074;-69
2022/12/06 01:47:29;;;;;;;7.72;4.43;;;;;;;;;;4981533;28;20568;-69
2022/12/06 01:49:54;;;;;;;7.50;4.95;;;;;;;;;;4979431;28;20522;-69
2022/12/06 01:52:25;;;;;;;7.68;4.93;;;;;;;;;;4980947;28;20050;-70
2022/12/06 01:54:51;;;;;;;6.88;4.85;;;;;;;;;;4980835;28;20096;-69
2022/12/06 01:57:17;;;;;;;6.63;4.05;;;;;;;;;;4981081;28;20057;-69
2022/12/06 01:59:43;;;;;;;7.38;5.65;;;;;;;;;;4981514;28;20058;-69
2022/12/06 02:02:09;;;;;;;6.45;4.85;;;;;;;;;;4981388;28;20053;-70
2022/12/06 02:04:35;;;;;;;8.80;5.45;;;;;;;;;;4981754;28;20057;-69
2022/12/06 02:07:01;;;;;;;8.10;4.68;;;;;;;;;;4980226;28;20057;-69
2022/12/06 02:09:28;;;;;;;6.32;5.18;;;;;;;;;;4980960;28;20512;-70
2022/12/06 02:11:54;;;;;;;9.43;4.93;;;;;;;;;;4981289;28;20412;-69
2022/12/06 02:14:24;;;;;;;7.55;5.45;;;;;;;;;;4981590;28;20569;-70
2022/12/06 02:17:17;;;;;;;7.05;4.65;;;;;;;;;;4980332;28;20073;-70
2022/12/06 02:19:56;;;;;;;;;;;;;;;;;;4996128;28;20034;-69
2022/12/06 02:22:34;;;;;;;12.40;7.45;;;;;;;;;;4981170;28;19927;-69
2022/12/06 02:25:28;;;;;;;11.80;7.07;;;;;;;;;;4981004;28;20046;-69
2022/12/06 02:28:06;;;;;;;8.65;6.10;;;;;;;;;;4977437;28;20467;-69
2022/12/06 02:30:58;;;;;;;6.22;3.88;;;;;;;;;;4981343;28;20408;-68
2022/12/06 02:33:39;;;;;;;5.05;3.10;;;;;;;;;;4980497;28;20137;-69
2022/12/06 02:36:31;;;;;;;7.28;4.32;;;;;;;;;;4980928;28;20050;-69
2022/12/06 02:39:01;;;;;;;10.32;5.75;;;;;;;;;;4980341;28;20042;-69
2022/12/06 02:41:34;;;;;;;8.48;5.55;;;;;;;;;;4980572;28;20050;-70
2022/12/06 02:44:05;;;;;;;7.13;5.97;;;;;;;;;;4981213;28;20050;-71
2022/12/06 02:46:35;;;;;;;7.25;5.15;;;;;;;;;;4980810;28;20050;-70
2022/12/06 02:49:02;;;;;;;8.20;6.18;;;;;;;;;;4995924;28;20052;-69
2022/12/06 02:51:31;;;;;;;11.73;6.25;;;;;;;;;;4979753;28;20054;-69
2022/12/06 02:53:58;;;;;;;8.75;5.47;;;;;;;;;;4981086;28;20076;-69
2022/12/06 02:56:24;;;;;;;10.27;6.32;;;;;;;;;;4980764;28;20050;-70
2022/12/06 02:58:49;;;;;;;8.05;5.93;;;;;;;;;;4981026;28;20046;-70
2022/12/06 03:01:31;;;;;;;9.25;6.07;;;;;;;;;;4979710;28;20135;-69
2022/12/06 03:04:30;;;;;;;8.38;5.70;;;;;;;;;;4981479;28;20050;-70
2022/12/06 03:07:26;;;;;;;11.50;6.25;;;;;;;;;;4960707;28;20088;-69
2022/12/06 03:10:08;;;;;;;8.52;5.22;;;;;;;;;;4982261;28;20050;-69
2022/12/06 03:12:52;;;;;;;8.00;6.00;;;;;;;;;;4984025;28;20407;-69
2022/12/06 03:15:42;;;;;;;6.78;5.07;;;;;;;;;;4983375;28;20048;-70
2022/12/06 03:18:41;;;;;;;8.10;6.15;;;;;;;;;;4984772;28;20038;-69
2022/12/06 03:21:13;;;;;;;8.18;5.93;;;;;;;;;;4984611;28;20057;-70
2022/12/06 03:23:44;;;;;;;8.27;5.97;;;;;;;;;;4983036;28;20483;-69
2022/12/06 03:26:12;;;;;;;11.48;6.55;;;;;;;;;;4984398;28;20085;-68
2022/12/06 03:28:39;;;;;;;14.95;5.90;;;;;;;;;;4984440;28;20415;-69
2022/12/06 03:31:12;;;;;;;9.20;5.88;;;;;;;;;;4984509;28;20350;-70
2022/12/06 03:33:43;;;;;;;7.20;5.63;;;;;;;;;;4982970;28;20085;-69
2022/12/06 03:36:11;;;;;;;7.78;5.55;;;;;;;;;;4983826;28;20057;-69
2022/12/06 03:38:44;;;;;;;9.50;5.80;;;;;;;;;;4984231;28;20047;-69
2022/12/06 03:41:13;;;;;;;8.80;6.35;;;;;;;;;;4984302;28;20065;-70
2022/12/06 03:43:38;;;;;;;10.98;6.30;;;;;;;;;;4983690;28;20065;-69
2022/12/06 03:46:14;;;;;;;8.98;6.45;;;;;;;;;;4983113;28;20043;-69
2022/12/06 03:48:45;;;;;;;9.88;6.38;;;;;;;;;;4984096;28;20052;-69
2022/12/06 03:51:17;;;;;;;8.25;5.93;;;;;;;;;;4984274;28;20097;-69
2022/12/06 03:53:47;;;;;;;;;;;;;;;;;;4984127;28;20129;-70
2022/12/06 03:56:13;;;;;;;7.28;5.20;;;;;;;;;;4982930;28;19976;-69
2022/12/06 03:58:38;;;;;;;8.48;6.18;;;;;;;;;;4983870;28;20047;-68
2022/12/06 04:01:08;;;;;;;8.38;6.43;;;;;;;;;;4983618;28;20046;-69
2022/12/06 04:03:34;;;;;;;10.20;6.40;;;;;;;;;;4983179;28;20095;-69
2022/12/06 04:06:06;;;;;;;10.15;6.35;;;;;;;;;;4983833;28;20039;-69
2022/12/06 04:08:32;;;;;;;8.30;5.80;;;;;;;;;;4983381;28;20161;-70
2022/12/06 04:10:58;;;;;;;8.80;5.95;;;;;;;;;;4983781;28;20313;-69
2022/12/06 04:13:24;;;;;;;8.02;6.03;;;;;;;;;;4983315;28;20045;-68
2022/12/06 04:15:54;;;;;;;7.70;5.65;;;;;;;;;;4982547;28;20447;-67
2022/12/06 04:18:20;;;;;;;8.43;5.43;;;;;;;;;;4983252;28;20046;-68
2022/12/06 04:23:40;;;;;;;7.20;5.72;;;;;;;;;;4982921;28;20065;-70
2022/12/06 04:26:08;;;;;;;8.52;6.18;;;;;;;;;;4981910;28;20053;-69
2022/12/06 04:39:31;;;;;;;10.35;5.53;;;;;;;;;;4981150;28;20050;-70
2022/12/06 04:44:42;;;;;;;9.98;6.05;;;;;;;;;;4982868;28;20070;-69
2022/12/06 04:47:08;;;;;;;9.48;6.28;;;;;;;;;;4982860;28;20030;-69
2022/12/06 04:49:34;;;;;;;11.23;7.30;;;;;;;;;;4982073;28;20603;-69
2022/12/06 04:52:00;;;;;;;13.70;8.85;;;;;;;;;;4981657;28;20042;-70
2022/12/06 04:54:26;;;;;;;15.80;8.82;;;;;;;;;;4982860;28;21044;-69
2022/12/06 04:56:52;;;;;;;12.80;8.07;;;;;;;;;;4981115;28;20061;-68
2022/12/06 04:59:17;;;;;;;12.07;7.25;;;;;;;;;;4982609;28;20042;-68
2022/12/06 05:01:43;;;;;;;12.82;7.18;;;;;;;;;;4981566;28;20050;-69
2022/12/06 05:04:08;;;;;;;11.30;7.25;;;;;;;;;;4982598;28;20038;-71
2022/12/06 05:06:34;;;;;;;14.93;8.30;;;;;;;;;;4982235;28;20053;-71
2022/12/06 05:08:59;;;;;;;13.32;7.43;;;;;;;;;;4982662;28;20054;-70
2022/12/06 05:11:25;;;;;;;11.63;7.05;;;;;;;;;;4982101;28;20621;-70
2022/12/06 05:13:50;;;;;;;11.98;7.60;;;;;;;;;;4981655;28;20112;-71
2022/12/06 05:16:16;;;;;;;10.45;6.68;;;;;;;;;;4982079;28;20184;-70
2022/12/06 05:18:42;;;;;;;12.13;7.47;;;;;;;;;;4982407;28;20045;-70
2022/12/06 05:21:11;;;;;;;11.15;6.40;;;;;;;;;;4982474;28;20046;-70
2022/12/06 05:23:37;;;;;;;10.32;6.85;;;;;;;;;;4980872;28;20054;-70
2022/12/06 05:26:07;;;;;;;13.02;7.75;;;;;;;;;;4980826;28;20043;-70
2022/12/06 05:28:33;;;;;;;11.90;6.85;;;;;;;;;;4980773;28;20049;-70
2022/12/06 05:30:59;;;;;;;11.02;6.78;;;;;;;;;;4980470;28;20042;-70
2022/12/06 05:33:25;;;;;;;12.43;6.85;;;;;;;;;;4981417;28;20049;-70
2022/12/06 05:35:50;;;;;;;11.45;7.22;;;;;;;;;;4980812;28;20117;-70
2022/12/06 05:38:16;;;;;;;11.75;7.05;;;;;;;;;;4982215;28;20039;-71
2022/12/06 05:40:42;;;;;;;10.55;6.82;;;;;;;;;;4981299;28;20042;-70
2022/12/06 05:43:08;;;;;;;9.90;7.30;;;;;;;;;;4979042;28;20046;-70
2022/12/06 05:45:35;;;;;;;9.50;6.93;;;;;;;;;;4979336;28;20050;-71
2022/12/06 05:48:01;;;;;;;10.35;7.22;;;;;;;;;;4980639;28;20050;-70
2022/12/06 05:50:26;;;;;;;12.93;7.60;;;;;;;;;;4980201;28;20104;-70
2022/12/06 05:52:53;;;;;;;11.00;7.20;;;;;;;;;;4980416;28;20050;-70
2022/12/06 05:55:19;;;;;;;10.50;7.07;;;;;;;;;;4976983;28;20050;-70
2022/12/06 05:57:44;;;;;;;10.65;7.18;;;;;;;;;;4980597;28;20042;-70
2022/12/06 06:00:10;;;;;;;9.00;5.90;;;;;;;;;;4981203;28;21178;-69
2022/12/06 06:02:36;;;;;;;9.73;6.38;;;;;;;;;;4981365;28;20108;-68
2022/12/06 06:05:02;;;;;;;8.07;6.18;;;;;;;;;;4981364;28;20038;-67
2022/12/06 06:07:28;;;;;;;10.32;6.93;;;;;;;;;;4979166;28;20538;-68
2022/12/06 06:09:54;;;;;;;8.88;6.63;;;;;;;;;;4981284;28;20533;-67
2022/12/06 06:12:20;;;;;;;9.63;6.32;;;;;;;;;;4980899;28;20046;-67
2022/12/06 06:14:45;;;;;;;10.75;6.38;;;;;;;;;;4977579;28;20046;-67
2022/12/06 06:17:12;;;;;;;10.10;6.68;;;;;;;;;;4976902;28;20661;-67
2022/12/06 06:19:37;;;;;;;8.95;6.30;;;;;;;;;;4975642;28;20411;-68
2022/12/06 06:22:03;;;;;;;8.60;6.45;;;;;;;;;;4976442;28;20045;-67
2022/12/06 06:24:35;;;;;;;9.73;6.68;;;;;;;;;;4978566;28;20403;-67
2022/12/06 06:27:01;;;;;;;8.82;6.40;;;;;;;;;;4978731;28;20042;-67
2022/12/06 06:29:27;;;;;;;10.10;6.70;;;;;;;;;;4978132;28;20058;-68
2022/12/06 06:31:52;;;;;;;9.73;6.25;;;;;;;;;;4981151;28;20638;-67
2022/12/06 06:34:17;;;;;;;10.48;6.60;;;;;;;;;;4980977;28;20165;-67
2022/12/06 06:36:43;;;;;;;8.20;5.72;;;;;;;;;;4980495;28;20077;-67
2022/12/06 06:39:08;;;;;;;15.07;7.80;;;;;;;;;;4980606;28;20065;-67
2022/12/06 06:41:34;;;;;;;11.13;7.05;;;;;;;;;;4980028;28;20050;-67
2022/12/06 06:43:59;;;;;;;12.15;7.43;;;;;;;;;;4980728;28;20384;-67
2022/12/06 06:46:25;;;;;;;15.15;8.13;;;;;;;;;;4981077;28;20109;-67
2022/12/06 06:48:50;;;;;;;13.05;7.55;;;;;;;;;;4980860;28;20050;-67
2022/12/06 06:51:16;;;;;;;16.40;8.93;;;;;;;;;;4980316;28;20054;-69
2022/12/06 06:53:41;;;;;;;16.55;9.52;;;;;;;;;;4979885;28;20062;-68
2022/12/06 06:56:08;;;;;;;15.27;8.50;;;;;;;;;;4980465;28;20153;-67
2022/12/06 06:58:33;;;;;;;16.17;8.13;;;;;;;;;;4980748;28;20054;-69
2022/12/06 07:01:00;;;;;;;18.08;8.52;;;;;;;;;;4973107;28;20042;-68
2022/12/06 07:03:27;;;;;;;16.05;8.70;;;;;;;;;;4978714;28;20062;-68
2022/12/06 07:05:57;;;;;;;17.55;9.95;;;;;;;;;;4980486;28;20503;-70
2022/12/06 07:08:24;;;;;;;15.38;9.55;;;;;;;;;;4980494;28;20038;-71
2022/12/06 07:10:50;;;;;;;19.52;10.90;;;;;;;;;;4980354;28;20042;-70
2022/12/06 07:13:17;;;;;;;19.45;9.70;;;;;;;;;;4979891;28;20496;-69
2022/12/06 07:15:42;;;;;;;16.63;10.10;;;;;;;;;;4994749;28;20050;-70
2022/12/06 07:18:08;;;;;;;18.75;10.80;;;;;;;;;;4980808;28;20408;-71
2022/12/06 07:20:33;;;;;;;20.02;10.40;;;;;;;;;;4980094;28;20055;-68
2022/12/06 07:22:59;;;;;;;19.98;9.60;;;;;;;;;;4995098;28;20053;-68
2022/12/06 07:25:24;;;;;;;19.33;10.45;;;;;;;;;;4978667;28;20574;-68
2022/12/06 07:27:50;;;;;;;15.88;9.35;;;;;;;;;;4980241;28;20081;-68
2022/12/06 07:30:15;;;;;;;18.25;10.07;;;;;;;;;;4979970;28;20141;-68
2022/12/06 07:32:41;;;;;;;18.45;10.73;;;;;;;;;;4979685;28;20117;-68
2022/12/06 07:35:07;;;;;;;16.40;10.80;;;;;;;;;;4979798;28;20047;-68
2022/12/06 07:37:32;;;;;;;17.52;10.02;;;;;;;;;;4979447;28;20038;-68
2022/12/06 07:39:58;;;;;;;16.67;10.30;;;;;;;;;;4980592;28;20046;-68
2022/12/06 07:45:10;;;;;;;19.38;9.98;;;;;;;;;;4980426;28;20196;-68
2022/12/06 07:47:38;;;;;;;18.80;10.43;;;;;;;;;;4978959;28;20131;-68
2022/12/06 07:50:06;;;;;;;15.15;9.45;;;;;;;;;;4981884;28;20054;-68
2022/12/06 07:52:34;;;;;;;17.02;9.38;;;;;;;;;;4983855;28;20054;-71
2022/12/06 07:55:00;;;;;;;16.13;10.15;;;;;;;;;;4983544;28;20046;-68
2022/12/06 07:57:25;;;;;;;15.88;9.75;;;;;;;;;;4981950;28;20575;-69
2022/12/06 07:59:50;;;;;;;16.85;10.75;;;;;;;;;;4983648;28;20070;-68
2022/12/06 08:02:21;;;;;;;17.00;9.98;;;;;;;;;;4983171;28;20050;-69
2022/12/06 08:04:47;;;;;;;15.20;9.45;;;;;;;;;;4983186;28;20042;-68
2022/12/06 08:07:14;;;;;;;18.05;9.60;;;;;;;;;;4981330;28;20042;-68
2022/12/06 08:09:40;;;;;;;16.35;9.73;;;;;;;;;;4982559;28;20070;-68
2022/12/06 08:12:07;;;;;;;16.48;9.80;;;;;;;;;;4983447;28;20096;-68
2022/12/06 08:14:33;;;;;;;17.52;10.48;;;;;;;;;;4982411;28;20133;-68
2022/12/06 08:16:58;;;;;;;16.55;10.18;;;;;;;;;;4981091;28;20140;-68
2022/12/06 08:19:24;;;;;;;16.80;10.05;;;;;;;;;;4982341;28;20046;-69
2022/12/06 08:21:50;;;;;;;16.98;10.00;;;;;;;;;;4983307;28;20080;-72
2022/12/06 08:24:15;;;;;;;19.95;11.00;;;;;;;;;;4983145;28;20184;-72
2022/12/06 08:26:41;;;;;;;19.58;10.32;;;;;;;;;;4983518;28;20499;-69
2022/12/06 08:29:06;;;;;;;16.40;10.23;;;;;;;;;;4983180;28;20366;-70
2022/12/06 08:31:33;;;;;;;18.45;10.85;;;;;;;;;;4982112;28;20104;-69
2022/12/06 08:34:00;;;;;;;17.77;10.98;;;;;;;;;;4983104;28;20047;-69
2022/12/06 08:36:27;;;;;;;20.42;12.05;;;;;;;;;;4981964;28;20053;-69
2022/12/06 08:38:54;;;;;;;19.30;11.77;;;;;;;;;;4983121;28;20503;-69
2022/12/06 08:44:06;;;;;;;18.80;9.60;;;;;;;;;;4982802;28;20061;-69
2022/12/06 08:46:34;;;;;;;18.92;10.27;;;;;;;;;;4982533;28;20093;-70
2022/12/06 08:49:00;;;;;;;17.50;10.40;;;;;;;;;;4981959;28;20050;-69
2022/12/06 08:51:27;;;;;;;19.35;10.45;;;;;;;;;;4982500;28;20050;-69
2022/12/06 08:53:54;;;;;;;13.52;9.38;;;;;;;;;;4982059;28;20062;-70
2022/12/06 08:56:20;;;;;;;14.18;8.40;;;;;;;;;;4981027;28;20046;-71
2022/12/06 08:58:46;;;;;;;11.50;7.90;;;;;;;;;;4982536;28;20053;-71
2022/12/06 09:01:14;;;;;;;11.63;7.65;;;;;;;;;;4982200;28;20062;-69
2022/12/06 09:03:40;;;;;;;8.32;6.13;;;;;;;;;;4981147;28;20054;-68
2022/12/06 09:06:06;;;;;;;9.25;6.63;;;;;;;;;;4982318;28;20381;-69
2022/12/06 09:08:32;;;;;;;7.43;6.07;;;;;;;;;;4982299;28;20054;-69
2022/12/06 09:10:57;;;;;;;7.70;5.53;;;;;;;;;;4982379;28;20057;-67
2022/12/06 09:13:23;;;;;;;7.50;6.20;;;;;;;;;;4981932;28;20057;-69
2022/12/06 09:15:48;;;;;;;7.95;6.20;;;;;;;;;;4981336;28;20061;-70
2022/12/06 09:18:14;;;;;;;9.68;6.53;;;;;;;;;;4980457;28;20550;-69
2022/12/06 09:20:40;;;;;;;10.82;6.65;;;;;;;;;;4982028;28;20042;-69
2022/12/06 09:23:06;;;;;;;8.52;6.82;;;;;;;;;;4982303;28;20038;-68
2022/12/06 09:25:31;;;;;;;12.02;6.47;;;;;;;;;;4980802;28;20108;-68
2022/12/06 09:27:58;;;;;;;8.40;6.40;;;;;;;;;;4981673;28;20121;-69
2022/12/06 09:30:23;;;;;;;10.27;6.45;;;;;;;;;;4976048;28;20068;-70
2022/12/06 09:32:49;;;;;;;10.88;7.93;;;;;;;;;;4996214;28;20045;-71
2022/12/06 09:35:14;;;;;;;9.55;7.55;;;;;;;;;;4983868;28;20145;-71
2022/12/06 09:37:40;;;;;;;9.57;6.85;;;;;;;;;;4995336;28;20050;-71
2022/12/06 09:40:15;;;;;;;13.65;6.82;;;;;;;;;;4981662;28;20097;-70
2022/12/06 09:43:01;;;;;;;9.82;6.70;;;;;;;;;;4981855;28;20053;-69
2022/12/06 09:45:35;;;;;;;8.40;6.30;;;;;;;;;;4981279;28;20490;-69
2022/12/06 09:48:13;;;;;;;8.95;6.93;;;;;;;;;;4980083;28;20042;-70
2022/12/06 09:50:44;;;;;;;12.25;7.20;;;;;;;;;;4981758;28;20050;-69
2022/12/06 09:53:38;;;;;;;11.23;7.13;;;;;;;;;;4981682;28;20053;-68
2022/12/06 09:56:34;;;;;;;11.50;7.07;;;;;;;;;;4958905;28;20046;-71
2022/12/06 09:59:21;;;;;;;7.85;6.00;;;;;;;;;;4980529;28;20045;-69
2022/12/06 10:02:22;;;;;;;9.30;6.22;;;;;;;;;;4979724;28;20050;-68
2022/12/06 10:04:47;;;;;;;7.53;5.70;;;;;;;;;;4965723;28;20129;-68
2022/12/06 10:07:25;;;;;;;8.98;5.78;;;;;;;;;;4981004;28;21171;-70
2022/12/06 10:09:56;;;;;;;8.35;5.82;;;;;;;;;;4977769;28;20058;-69
2022/12/06 10:12:51;;;;;;;8.70;6.10;;;;;;;;;;4980903;28;20057;-69
2022/12/06 10:15:22;;;;;;;9.25;6.28;;;;;;;;;;4981265;28;20130;-69
2022/12/06 10:18:16;;;;;;;6.45;5.10;;;;;;;;;;4980416;28;20054;-70
2022/12/06 10:20:47;;;;;;;10.70;5.20;;;;;;;;;;4980381;28;20472;-70
2022/12/06 10:23:31;;;;;;;9.43;4.75;;;;;;;;;;4981121;28;20046;-69
2022/12/06 10:26:23;;;;;;;5.38;4.40;;;;;;;;;;4978754;28;20046;-69
2022/12/06 10:28:54;;;;;;;6.93;4.85;;;;;;;;;;4980764;28;20062;-69
2022/12/06 10:31:23;;;;;;;7.20;5.00;;;;;;;;;;4978792;28;20579;-70
2022/12/06 10:34:24;;;;;;;5.03;4.13;;;;;;;;;;4979890;28;20351;-69
2022/12/06 10:37:08;;;;;;;4.75;3.92;;;;;;;;;;4977165;28;20045;-69
2022/12/06 10:39:45;;;;;;;5.90;3.47;;;;;;;;;;4979978;28;20070;-70
2022/12/06 10:42:17;;;;;;;6.78;3.70;;;;;;;;;;4980254;28;20073;-70
2022/12/06 10:44:52;;;;;;;4.65;3.50;;;;;;;;;;4980819;28;21151;-71
2022/12/06 10:47:29;;;;;;;5.57;4.03;;;;;;;;;;4979559;28;21014;-70
2022/12/06 10:50:04;;;;;;;4.15;3.35;;;;;;;;;;4977891;28;20054;-70
2022/12/06 10:52:50;;;;;;;4.72;3.38;;;;;;;;;;4980812;28;20610;-70
2022/12/06 10:55:38;;;;;;;4.53;3.55;;;;;;;;;;4979764;28;20056;-69
2022/12/06 10:58:39;;;;;;;7.25;3.72;;;;;;;;;;4962717;28;20050;-70
2022/12/06 11:01:16;;;;;;;3.80;3.22;;;;;;;;;;4980707;28;20419;-68
2022/12/06 11:04:03;;;;;;;4.28;3.50;;;;;;;;;;4980296;28;20136;-68
2022/12/06 11:06:39;;;;;;;4.95;3.45;;;;;;;;;;4979650;28;20042;-69
2022/12/06 11:09:29;;;;;;;4.93;3.45;;;;;;;;;;4980352;28;20061;-69
2022/12/06 11:11:55;;;;;;;4.70;3.67;;;;;;;;;;4978250;28;20056;-70
2022/12/06 11:14:28;;;;;;;4.20;3.22;;;;;;;;;;4981096;28;20046;-70
2022/12/06 11:16:58;;;;;;;5.15;3.40;;;;;;;;;;4993329;28;20096;-69
2022/12/06 11:19:37;;;;;;;4.97;3.53;;;;;;;;;;4980124;28;20084;-70
2022/12/06 11:22:32;;;;;;;4.85;3.47;;;;;;;;;;4980016;28;20050;-69
2022/12/06 11:25:14;;;;;;;5.60;3.67;;;;;;;;;;4981759;28;20046;-70
2022/12/06 11:28:28;;;;;;;5.53;3.58;;;;;;;;;;4982346;28;20050;-70
2022/12/06 11:30:58;;;;;;;3.90;2.95;;;;;;;;;;4963237;28;20133;-70
2022/12/06 11:33:31;;;;;;;5.03;3.35;;;;;;;;;;4982336;28;20493;-70
2022/12/06 11:36:01;;;;;;;5.00;3.47;;;;;;;;;;4984022;28;20042;-69
2022/12/06 11:38:27;;;;;;;5.45;3.33;;;;;;;;;;4983216;28;20156;-69
2022/12/06 11:40:52;;;;;;;7.75;3.70;;;;;;;;;;4983858;28;20050;-70
2022/12/06 11:43:25;;;;;;;5.90;3.60;;;;;;;;;;4983765;28;20050;-74
2022/12/06 11:45:54;;;;;;;4.65;3.63;;;;;;;;;;4948862;28;20058;-70
2022/12/06 11:48:23;;;;;;;4.15;3.35;;;;;;;;;;4982378;28;20149;-69
2022/12/06 11:50:50;;;;;;;3.58;3.13;;;;;;;;;;4983605;28;20054;-70
2022/12/06 11:53:24;;;;;;;4.00;3.10;;;;;;;;;;4984019;28;20188;-70
2022/12/06 11:55:53;;;;;;;3.60;3.15;;;;;;;;;;4979684;28;20185;-69
2022/12/06 11:58:40;;;;;;;3.88;3.38;;;;;;;;;;4983636;28;20097;-70
2022/12/06 12:01:09;;;;;;;4.70;3.17;;;;;;;;;;4982858;28;20057;-69
2022/12/06 12:03:41;;;;;;;4.22;3.50;;;;;;;;;;4983106;28;20058;-70
2022/12/06 12:06:07;;;;;;;4.10;3.30;;;;;;;;;;4982049;28;20046;-70
2022/12/06 12:08:34;;;;;;;5.32;3.35;;;;;;;;;;4998574;28;20062;-70
2022/12/06 12:11:01;;;;;;;4.93;3.70;;;;;;;;;;4982928;28;20050;-70
2022/12/06 12:13:43;;;;;;;4.05;3.30;;;;;;;;;;4982851;28;20054;-71
2022/12/06 12:16:22;;;;;;;4.75;3.58;;;;;;;;;;4982988;28;20052;-70
2022/12/06 12:19:00;;;;;;;10.10;3.90;;;;;;;;;;4983161;28;20065;-70
2022/12/06 12:21:41;;;;;;;4.43;3.50;;;;;;;;;;4982619;28;20059;-71
2022/12/06 12:24:41;;;;;;;5.20;3.75;;;;;;;;;;4983075;28;20484;-71
2022/12/06 12:27:33;;;;;;;4.35;3.60;;;;;;;;;;4982768;28;20061;-70
2022/12/06 12:30:14;;;;;;;5.95;4.28;;;;;;;;;;4979813;28;20058;-70
2022/12/06 12:32:40;;;;;;;5.15;3.92;;;;;;;;;;4981858;28;20658;-68
2022/12/06 12:35:24;;;;;;;5.75;4.07;;;;;;;;;;4981046;28;20166;-71
2022/12/06 12:37:56;;;;;;;4.15;3.72;;;;;;;;;;4981789;28;20085;-70
2022/12/06 12:40:22;;;;;;;;;;;;;;;;;;4983047;28;20902;-69
2022/12/06 12:42:55;;;;;;;5.55;3.60;;;;;;;;;;4982056;28;19971;-69
2022/12/06 12:45:21;;;;;;;4.80;4.05;;;;;;;;;;4976963;28;20046;-70
2022/12/06 12:48:01;;;;;;;4.57;4.05;;;;;;;;;;4976496;28;20046;-69
2022/12/06 12:50:28;;;;;;;4.55;3.95;;;;;;;;;;4979727;28;20098;-69
2022/12/06 12:52:54;;;;;;;4.95;3.67;;;;;;;;;;4979786;28;20042;-70
2022/12/06 12:55:24;;;;;;;4.80;3.80;;;;;;;;;;4979546;28;20061;-69
2022/12/06 12:57:53;;;;;;;6.68;4.45;;;;;;;;;;4979202;28;20042;-69
2022/12/06 13:00:20;;;;;;;7.35;4.18;;;;;;;;;;4978729;28;20049;-70
2022/12/06 13:02:57;;;;;;;6.07;4.18;;;;;;;;;;4981651;28;20052;-69
2022/12/06 13:05:27;;;;;;;4.45;3.85;;;;;;;;;;4980912;28;20971;-69
2022/12/06 13:07:59;;;;;;;4.30;3.53;;;;;;;;;;4980897;28;20062;-68
2022/12/06 13:10:35;;;;;;;5.13;3.75;;;;;;;;;;4980085;28;20100;-68
2022/12/06 13:13:12;;;;;;;4.40;3.67;;;;;;;;;;4981331;28;20482;-68
2022/12/06 13:15:53;;;;;;;5.25;3.97;;;;;;;;;;4981268;28;20038;-70
2022/12/06 13:18:28;;;;;;;7.00;4.20;;;;;;;;;;4980532;28;20053;-69
2022/12/06 13:20:57;;;;;;;5.32;3.95;;;;;;;;;;4981286;28;20045;-68
2022/12/06 13:23:27;;;;;;;9.52;4.68;;;;;;;;;;4980491;28;20054;-69
2022/12/06 13:26:15;;;;;;;4.72;3.72;;;;;;;;;;4981136;28;20061;-69
2022/12/06 13:28:45;;;;;;;5.15;3.78;;;;;;;;;;4979604;28;20412;-70
2022/12/06 13:31:25;;;;;;;4.30;3.90;;;;;;;;;;4979960;28;20184;-71
2022/12/06 13:33:55;;;;;;;7.38;4.10;;;;;;;;;;4933377;28;20067;-70
2022/12/06 13:36:23;;;;;;;5.05;3.78;;;;;;;;;;4980600;28;20569;-70
2022/12/06 13:38:49;;;;;;;4.22;3.65;;;;;;;;;;4980338;28;20137;-72
2022/12/06 13:44:47;;;;;;;6.53;4.45;;;;;;;;;;4969010;28;20046;-70
2022/12/06 13:47:27;;;;;;;7.47;5.07;;;;;;;;;;4979970;28;20086;-71
2022/12/06 13:50:19;;;;;;;6.93;4.63;;;;;;;;;;4978027;28;20078;-71
2022/12/06 13:52:44;;;;;;;9.70;6.28;;;;;;;;;;4981168;28;20065;-71
2022/12/06 13:55:25;;;;;;;6.00;4.47;;;;;;;;;;4981288;28;20708;-71
2022/12/06 13:58:02;;;;;;;6.57;4.82;;;;;;;;;;4978202;28;20050;-70
2022/12/06 14:00:28;;;;;;;6.75;4.72;;;;;;;;;;4982892;28;22088;-71
2022/12/06 14:03:12;;;;;;;8.00;5.15;;;;;;;;;;4979115;28;20056;-71
2022/12/06 14:06:04;;;;;;;6.80;4.82;;;;;;;;;;4978305;28;20058;-71
2022/12/06 14:08:29;;;;;;;7.57;4.57;;;;;;;;;;4979307;28;20093;-71
2022/12/06 14:11:23;;;;;;;5.93;3.85;;;;;;;;;;4978077;28;20574;-71
2022/12/06 14:13:54;;;;;;;5.13;3.95;;;;;;;;;;4979791;28;20052;-71
2022/12/06 14:16:25;;;;;;;4.90;3.67;;;;;;;;;;4980184;28;20045;-71
2022/12/06 14:18:51;;;;;;;4.88;3.42;;;;;;;;;;4978669;28;20042;-71
2022/12/06 14:21:29;;;;;;;3.83;3.17;;;;;;;;;;4979259;28;20062;-72
2022/12/06 14:23:55;;;;;;;4.95;3.55;;;;;;;;;;4973858;28;20050;-70
2022/12/06 14:26:23;;;;;;;4.30;3.38;;;;;;;;;;4980213;28;20157;-72
2022/12/06 14:28:51;;;;;;;4.28;3.60;;;;;;;;;;4981240;28;20141;-72
2022/12/06 14:31:37;;;;;;;5.00;4.03;;;;;;;;;;4980343;28;20057;-71
2022/12/06 14:34:03;;;;;;;7.00;3.70;;;;;;;;;;4976598;28;20058;-72
2022/12/06 14:36:34;;;;;;;7.88;3.65;;;;;;;;;;4980654;28;20046;-70
2022/12/06 14:39:24;;;;;;;4.10;3.55;;;;;;;;;;4978211;28;20109;-71
2022/12/06 14:44:59;;;;;;;5.15;3.28;;;;;;;;;;4978454;28;20104;-71
2022/12/06 14:47:25;;;;;;;5.18;3.60;;;;;;;;;;4977610;28;20799;-72
2022/12/06 14:53:08;;;;;;;3.88;3.17;;;;;;;;;;4980690;28;20057;-72
2022/12/06 14:55:55;;;;;;;3.50;3.20;;;;;;;;;;4976844;28;20065;-72
2022/12/06 14:58:24;;;;;;;3.78;3.05;;;;;;;;;;4977116;28;20144;-71
2022/12/06 15:01:13;;;;;;;5.65;3.80;;;;;;;;;;4982943;28;20073;-70
2022/12/06 15:03:39;;;;;;;4.38;3.22;;;;;;;;;;4981385;28;20046;-70
2022/12/06 15:06:12;;;;;;;8.93;3.90;;;;;;;;;;4982706;28;20034;-69
2022/12/06 15:08:40;;;;;;;3.80;3.22;;;;;;;;;;4983199;28;20077;-71
2022/12/06 15:11:08;;;;;;;4.43;3.40;;;;;;;;;;4983238;28;20050;-70
2022/12/06 15:13:34;;;;;;;4.35;3.67;;;;;;;;;;4982641;28;20042;-70
2022/12/06 15:16:08;;;;;;;7.15;3.55;;;;;;;;;;4983313;28;20112;-70
2022/12/06 15:18:39;;;;;;;6.07;3.42;;;;;;;;;;4981925;28;20046;-70
2022/12/06 15:21:15;;;;;;;4.20;3.40;;;;;;;;;;4982393;28;20046;-72
2022/12/06 15:23:52;;;;;;;5.50;3.72;;;;;;;;;;4982046;28;20042;-70
2022/12/06 15:26:19;;;;;;;5.18;3.30;;;;;;;;;;4981904;28;20070;-71
2022/12/06 15:28:46;;;;;;;10.75;4.10;;;;;;;;;;4979996;28;20133;-70
2022/12/06 15:31:27;;;;;;;3.70;3.30;;;;;;;;;;4981703;28;20422;-72
2022/12/06 15:33:54;;;;;;;6.20;3.50;;;;;;;;;;4979423;28;20058;-71